sensor_id;sensor_type;location;lat;lon;timestamp;P1;durP1;ratioP1;P2;durP2;ratioP2
8319;SDS011;4197;42.130;24.746;2023-04-03T00:01:19;3.53;;;2.87;;
8319;SDS011;4197;42.130;24.746;2023-04-03T00:03:48;3.40;;;1.80;;
8319;SDS011;4197;42.130;24.746;2023-04-03T00:06:18;2.87;;;2.30;;
8319;SDS011;4197;42.130;24.746;2023-04-03T00:08:48;2.73;;;1.70;;
8319;SDS011;4197;42.130;24.746;2023-04-03T00:11:17;2.33;;;1.70;;
8319;SDS011;4197;42.130;24.746;2023-04-03T00:13:47;2.43;;;1.90;;
8319;SDS011;4197;42.130;24.746;2023-04-03T00:16:15;2.80;;;2.27;;
8319;SDS011;4197;42.130;24.746;2023-04-03T00:18:44;2.87;;;2.20;;
8319;SDS011;4197;42.130;24.746;2023-04-03T00:21:13;1.90;;;1.70;;
8319;SDS011;4197;42.130;24.746;2023-04-03T00:23:42;2.43;;;1.80;;
8319;SDS011;4197;42.130;24.746;2023-04-03T00:26:11;3.20;;;1.83;;
8319;SDS011;4197;42.130;24.746;2023-04-03T00:28:40;2.13;;;1.93;;
8319;SDS011;4197;42.130;24.746;2023-04-03T00:31:08;2.50;;;1.57;;
8319;SDS011;4197;42.130;24.746;2023-04-03T00:33:37;2.50;;;1.70;;
8319;SDS011;4197;42.130;24.746;2023-04-03T00:36:06;2.97;;;2.00;;
8319;SDS011;4197;42.130;24.746;2023-04-03T00:38:35;2.77;;;2.30;;
8319;SDS011;4197;42.130;24.746;2023-04-03T00:41:04;2.33;;;1.77;;
8319;SDS011;4197;42.130;24.746;2023-04-03T00:43:34;4.27;;;2.60;;
8319;SDS011;4197;42.130;24.746;2023-04-03T00:46:02;2.57;;;2.30;;
8319;SDS011;4197;42.130;24.746;2023-04-03T00:48:32;4.30;;;2.83;;
8319;SDS011;4197;42.130;24.746;2023-04-03T00:51:04;3.07;;;1.83;;
8319;SDS011;4197;42.130;24.746;2023-04-03T00:53:35;2.13;;;1.93;;
8319;SDS011;4197;42.130;24.746;2023-04-03T00:56:08;2.03;;;1.60;;
8319;SDS011;4197;42.130;24.746;2023-04-03T00:58:42;3.23;;;1.80;;
8319;SDS011;4197;42.130;24.746;2023-04-03T01:01:15;1.80;;;1.70;;
8319;SDS011;4197;42.130;24.746;2023-04-03T01:03:48;3.20;;;2.00;;
8319;SDS011;4197;42.130;24.746;2023-04-03T01:06:17;3.73;;;1.80;;
8319;SDS011;4197;42.130;24.746;2023-04-03T01:08:48;1.80;;;1.57;;
8319;SDS011;4197;42.130;24.746;2023-04-03T01:11:17;3.30;;;2.07;;
8319;SDS011;4197;42.130;24.746;2023-04-03T01:13:48;2.10;;;1.83;;
8319;SDS011;4197;42.130;24.746;2023-04-03T01:16:16;4.27;;;1.93;;
8319;SDS011;4197;42.130;24.746;2023-04-03T01:18:47;4.63;;;2.03;;
8319;SDS011;4197;42.130;24.746;2023-04-03T01:24:33;4.23;;;2.37;;
8319;SDS011;4197;42.130;24.746;2023-04-03T01:27:06;2.50;;;1.80;;
8319;SDS011;4197;42.130;24.746;2023-04-03T01:29:38;3.60;;;2.40;;
8319;SDS011;4197;42.130;24.746;2023-04-03T01:32:11;3.07;;;1.90;;
8319;SDS011;4197;42.130;24.746;2023-04-03T01:34:39;6.03;;;2.70;;
8319;SDS011;4197;42.130;24.746;2023-04-03T01:37:07;6.37;;;2.80;;
8319;SDS011;4197;42.130;24.746;2023-04-03T01:39:35;2.40;;;1.90;;
8319;SDS011;4197;42.130;24.746;2023-04-03T01:42:04;2.93;;;1.70;;
8319;SDS011;4197;42.130;24.746;2023-04-03T01:44:32;3.47;;;1.83;;
8319;SDS011;4197;42.130;24.746;2023-04-03T01:47:01;3.57;;;2.00;;
8319;SDS011;4197;42.130;24.746;2023-04-03T01:49:30;7.50;;;4.00;;
8319;SDS011;4197;42.130;24.746;2023-04-03T01:51:58;5.97;;;4.97;;
8319;SDS011;4197;42.130;24.746;2023-04-03T01:54:27;6.83;;;4.70;;
8319;SDS011;4197;42.130;24.746;2023-04-03T01:56:55;4.47;;;3.00;;
8319;SDS011;4197;42.130;24.746;2023-04-03T01:59:23;2.67;;;2.13;;
8319;SDS011;4197;42.130;24.746;2023-04-03T02:01:52;3.70;;;2.43;;
8319;SDS011;4197;42.130;24.746;2023-04-03T02:04:20;8.60;;;4.10;;
8319;SDS011;4197;42.130;24.746;2023-04-03T02:06:50;6.33;;;3.80;;
8319;SDS011;4197;42.130;24.746;2023-04-03T02:09:18;4.47;;;2.57;;
8319;SDS011;4197;42.130;24.746;2023-04-03T02:11:47;4.17;;;2.40;;
8319;SDS011;4197;42.130;24.746;2023-04-03T02:14:17;5.23;;;2.60;;
8319;SDS011;4197;42.130;24.746;2023-04-03T02:16:46;3.57;;;2.70;;
8319;SDS011;4197;42.130;24.746;2023-04-03T02:19:14;4.27;;;2.50;;
8319;SDS011;4197;42.130;24.746;2023-04-03T02:21:42;8.93;;;4.20;;
8319;SDS011;4197;42.130;24.746;2023-04-03T02:24:13;6.37;;;3.97;;
8319;SDS011;4197;42.130;24.746;2023-04-03T02:26:41;9.77;;;4.77;;
8319;SDS011;4197;42.130;24.746;2023-04-03T02:29:09;8.20;;;4.90;;
8319;SDS011;4197;42.130;24.746;2023-04-03T02:31:37;6.87;;;5.27;;
8319;SDS011;4197;42.130;24.746;2023-04-03T02:34:06;6.53;;;4.80;;
8319;SDS011;4197;42.130;24.746;2023-04-03T02:36:34;7.47;;;4.97;;
8319;SDS011;4197;42.130;24.746;2023-04-03T02:39:02;6.83;;;4.47;;
8319;SDS011;4197;42.130;24.746;2023-04-03T02:41:33;6.97;;;4.93;;
8319;SDS011;4197;42.130;24.746;2023-04-03T02:44:01;7.00;;;4.13;;
8319;SDS011;4197;42.130;24.746;2023-04-03T02:46:30;7.33;;;5.07;;
8319;SDS011;4197;42.130;24.746;2023-04-03T02:48:58;5.77;;;4.03;;
8319;SDS011;4197;42.130;24.746;2023-04-03T02:51:26;9.83;;;5.73;;
8319;SDS011;4197;42.130;24.746;2023-04-03T02:53:55;11.07;;;4.80;;
8319;SDS011;4197;42.130;24.746;2023-04-03T02:56:23;6.60;;;3.77;;
8319;SDS011;4197;42.130;24.746;2023-04-03T02:58:54;12.20;;;4.83;;
8319;SDS011;4197;42.130;24.746;2023-04-03T03:01:22;6.93;;;4.70;;
8319;SDS011;4197;42.130;24.746;2023-04-03T03:03:51;9.00;;;4.17;;
8319;SDS011;4197;42.130;24.746;2023-04-03T03:06:19;8.17;;;4.90;;
8319;SDS011;4197;42.130;24.746;2023-04-03T03:08:47;6.00;;;4.33;;
8319;SDS011;4197;42.130;24.746;2023-04-03T03:11:15;8.97;;;5.47;;
8319;SDS011;4197;42.130;24.746;2023-04-03T03:13:44;9.20;;;5.13;;
8319;SDS011;4197;42.130;24.746;2023-04-03T03:16:13;10.00;;;5.10;;
8319;SDS011;4197;42.130;24.746;2023-04-03T03:18:42;8.13;;;5.30;;
8319;SDS011;4197;42.130;24.746;2023-04-03T03:21:10;13.80;;;6.57;;
8319;SDS011;4197;42.130;24.746;2023-04-03T03:23:39;17.90;;;6.77;;
8319;SDS011;4197;42.130;24.746;2023-04-03T03:26:07;11.23;;;6.10;;
8319;SDS011;4197;42.130;24.746;2023-04-03T03:28:37;16.40;;;8.00;;
8319;SDS011;4197;42.130;24.746;2023-04-03T03:31:07;14.77;;;7.73;;
8319;SDS011;4197;42.130;24.746;2023-04-03T03:33:38;12.90;;;7.70;;
8319;SDS011;4197;42.130;24.746;2023-04-03T03:36:06;16.40;;;9.77;;
8319;SDS011;4197;42.130;24.746;2023-04-03T03:38:34;13.47;;;9.03;;
8319;SDS011;4197;42.130;24.746;2023-04-03T03:41:03;14.50;;;8.67;;
8319;SDS011;4197;42.130;24.746;2023-04-03T03:43:31;16.27;;;9.30;;
8319;SDS011;4197;42.130;24.746;2023-04-03T03:45:59;13.63;;;8.93;;
8319;SDS011;4197;42.130;24.746;2023-04-03T03:48:27;13.87;;;8.50;;
8319;SDS011;4197;42.130;24.746;2023-04-03T03:50:57;18.57;;;9.07;;
8319;SDS011;4197;42.130;24.746;2023-04-03T03:53:25;21.73;;;10.23;;
8319;SDS011;4197;42.130;24.746;2023-04-03T03:55:53;22.73;;;9.53;;
8319;SDS011;4197;42.130;24.746;2023-04-03T03:58:22;19.90;;;8.13;;
8319;SDS011;4197;42.130;24.746;2023-04-03T04:00:50;14.93;;;9.27;;
8319;SDS011;4197;42.130;24.746;2023-04-03T04:03:18;16.57;;;6.77;;
8319;SDS011;4197;42.130;24.746;2023-04-03T04:05:47;12.37;;;7.97;;
8319;SDS011;4197;42.130;24.746;2023-04-03T04:08:17;16.97;;;7.83;;
8319;SDS011;4197;42.130;24.746;2023-04-03T04:10:45;13.47;;;8.77;;
8319;SDS011;4197;42.130;24.746;2023-04-03T04:13:13;14.10;;;8.30;;
8319;SDS011;4197;42.130;24.746;2023-04-03T04:15:42;9.50;;;6.77;;
8319;SDS011;4197;42.130;24.746;2023-04-03T04:18:12;11.40;;;7.77;;
8319;SDS011;4197;42.130;24.746;2023-04-03T04:20:40;16.20;;;7.83;;
8319;SDS011;4197;42.130;24.746;2023-04-03T04:23:08;13.13;;;6.03;;
8319;SDS011;4197;42.130;24.746;2023-04-03T04:25:38;21.00;;;8.43;;
8319;SDS011;4197;42.130;24.746;2023-04-03T04:28:07;12.90;;;5.80;;
8319;SDS011;4197;42.130;24.746;2023-04-03T04:30:36;13.03;;;5.93;;
8319;SDS011;4197;42.130;24.746;2023-04-03T04:33:05;12.20;;;7.63;;
8319;SDS011;4197;42.130;24.746;2023-04-03T04:35:34;24.77;;;6.60;;
8319;SDS011;4197;42.130;24.746;2023-04-03T04:38:04;17.47;;;5.70;;
8319;SDS011;4197;42.130;24.746;2023-04-03T04:40:33;12.30;;;5.87;;
8319;SDS011;4197;42.130;24.746;2023-04-03T04:43:03;8.90;;;5.27;;
8319;SDS011;4197;42.130;24.746;2023-04-03T04:45:31;12.27;;;5.80;;
8319;SDS011;4197;42.130;24.746;2023-04-03T04:48:00;6.80;;;5.30;;
8319;SDS011;4197;42.130;24.746;2023-04-03T04:50:29;14.63;;;5.73;;
8319;SDS011;4197;42.130;24.746;2023-04-03T04:53:01;12.17;;;7.67;;
8319;SDS011;4197;42.130;24.746;2023-04-03T04:55:33;8.20;;;4.53;;
8319;SDS011;4197;42.130;24.746;2023-04-03T04:58:04;14.00;;;8.53;;
8319;SDS011;4197;42.130;24.746;2023-04-03T05:00:32;13.30;;;7.77;;
8319;SDS011;4197;42.130;24.746;2023-04-03T05:03:01;12.00;;;6.20;;
8319;SDS011;4197;42.130;24.746;2023-04-03T05:05:29;17.47;;;6.07;;
8319;SDS011;4197;42.130;24.746;2023-04-03T05:07:57;17.60;;;7.87;;
8319;SDS011;4197;42.130;24.746;2023-04-03T05:10:26;12.73;;;6.60;;
8319;SDS011;4197;42.130;24.746;2023-04-03T05:12:55;14.40;;;8.23;;
8319;SDS011;4197;42.130;24.746;2023-04-03T05:15:25;19.97;;;8.80;;
8319;SDS011;4197;42.130;24.746;2023-04-03T05:17:53;15.10;;;7.83;;
8319;SDS011;4197;42.130;24.746;2023-04-03T05:20:21;15.60;;;8.00;;
8319;SDS011;4197;42.130;24.746;2023-04-03T05:22:50;13.33;;;7.20;;
8319;SDS011;4197;42.130;24.746;2023-04-03T05:25:19;26.53;;;8.57;;
8319;SDS011;4197;42.130;24.746;2023-04-03T05:27:47;16.97;;;8.23;;
8319;SDS011;4197;42.130;24.746;2023-04-03T05:30:16;20.33;;;8.97;;
8319;SDS011;4197;42.130;24.746;2023-04-03T05:32:46;17.17;;;8.60;;
8319;SDS011;4197;42.130;24.746;2023-04-03T05:35:14;24.43;;;10.80;;
8319;SDS011;4197;42.130;24.746;2023-04-03T05:37:43;16.37;;;10.57;;
8319;SDS011;4197;42.130;24.746;2023-04-03T05:40:12;17.47;;;9.97;;
8319;SDS011;4197;42.130;24.746;2023-04-03T05:42:43;20.47;;;9.90;;
8319;SDS011;4197;42.130;24.746;2023-04-03T05:45:11;17.53;;;10.00;;
8319;SDS011;4197;42.130;24.746;2023-04-03T05:47:39;20.60;;;10.40;;
8319;SDS011;4197;42.130;24.746;2023-04-03T05:50:10;20.73;;;9.17;;
8319;SDS011;4197;42.130;24.746;2023-04-03T05:52:40;18.60;;;9.37;;
8319;SDS011;4197;42.130;24.746;2023-04-03T05:55:11;25.87;;;8.77;;
8319;SDS011;4197;42.130;24.746;2023-04-03T05:57:40;19.90;;;9.47;;
8319;SDS011;4197;42.130;24.746;2023-04-03T06:00:11;24.20;;;7.63;;
8319;SDS011;4197;42.130;24.746;2023-04-03T06:02:42;14.93;;;8.20;;
8319;SDS011;4197;42.130;24.746;2023-04-03T06:05:13;15.73;;;6.23;;
8319;SDS011;4197;42.130;24.746;2023-04-03T06:07:41;11.17;;;6.33;;
8319;SDS011;4197;42.130;24.746;2023-04-03T06:10:11;14.27;;;6.40;;
8319;SDS011;4197;42.130;24.746;2023-04-03T06:12:40;9.33;;;5.53;;
8319;SDS011;4197;42.130;24.746;2023-04-03T06:15:09;12.73;;;5.83;;
8319;SDS011;4197;42.130;24.746;2023-04-03T06:17:38;7.27;;;4.33;;
8319;SDS011;4197;42.130;24.746;2023-04-03T06:20:06;10.13;;;4.53;;
8319;SDS011;4197;42.130;24.746;2023-04-03T06:22:37;15.00;;;4.97;;
8319;SDS011;4197;42.130;24.746;2023-04-03T06:25:08;11.77;;;5.37;;
8319;SDS011;4197;42.130;24.746;2023-04-03T06:27:37;8.13;;;4.50;;
8319;SDS011;4197;42.130;24.746;2023-04-03T06:30:06;14.20;;;6.03;;
8319;SDS011;4197;42.130;24.746;2023-04-03T06:32:35;13.80;;;4.97;;
8319;SDS011;4197;42.130;24.746;2023-04-03T06:35:06;21.93;;;6.10;;
8319;SDS011;4197;42.130;24.746;2023-04-03T06:37:36;10.37;;;4.63;;
8319;SDS011;4197;42.130;24.746;2023-04-03T06:40:05;11.23;;;6.43;;
8319;SDS011;4197;42.130;24.746;2023-04-03T06:42:39;10.63;;;5.57;;
8319;SDS011;4197;42.130;24.746;2023-04-03T06:45:09;9.23;;;5.67;;
8319;SDS011;4197;42.130;24.746;2023-04-03T06:47:38;13.93;;;6.13;;
8319;SDS011;4197;42.130;24.746;2023-04-03T06:50:07;11.10;;;5.17;;
8319;SDS011;4197;42.130;24.746;2023-04-03T06:52:39;14.13;;;5.60;;
8319;SDS011;4197;42.130;24.746;2023-04-03T06:55:08;14.83;;;5.47;;
8319;SDS011;4197;42.130;24.746;2023-04-03T06:57:37;10.23;;;4.20;;
8319;SDS011;4197;42.130;24.746;2023-04-03T07:00:06;29.00;;;5.97;;
8319;SDS011;4197;42.130;24.746;2023-04-03T07:02:35;13.43;;;5.03;;
8319;SDS011;4197;42.130;24.746;2023-04-03T07:05:04;11.90;;;5.43;;
8319;SDS011;4197;42.130;24.746;2023-04-03T07:07:33;9.37;;;4.70;;
8319;SDS011;4197;42.130;24.746;2023-04-03T07:10:04;12.87;;;5.60;;
8319;SDS011;4197;42.130;24.746;2023-04-03T07:12:33;10.67;;;4.70;;
8319;SDS011;4197;42.130;24.746;2023-04-03T07:15:02;8.77;;;4.50;;
8319;SDS011;4197;42.130;24.746;2023-04-03T07:17:31;7.43;;;4.60;;
8319;SDS011;4197;42.130;24.746;2023-04-03T07:19:59;7.97;;;4.53;;
8319;SDS011;4197;42.130;24.746;2023-04-03T07:22:28;4.77;;;3.90;;
8319;SDS011;4197;42.130;24.746;2023-04-03T07:24:56;7.70;;;4.13;;
8319;SDS011;4197;42.130;24.746;2023-04-03T07:27:27;6.07;;;4.03;;
8319;SDS011;4197;42.130;24.746;2023-04-03T07:29:55;7.00;;;4.60;;
8319;SDS011;4197;42.130;24.746;2023-04-03T07:32:25;6.27;;;3.30;;
8319;SDS011;4197;42.130;24.746;2023-04-03T07:34:53;7.43;;;3.70;;
8319;SDS011;4197;42.130;24.746;2023-04-03T07:37:22;7.80;;;3.97;;
8319;SDS011;4197;42.130;24.746;2023-04-03T07:39:50;8.97;;;4.03;;
8319;SDS011;4197;42.130;24.746;2023-04-03T07:42:18;17.23;;;4.93;;
8319;SDS011;4197;42.130;24.746;2023-04-03T07:44:48;17.80;;;4.93;;
8319;SDS011;4197;42.130;24.746;2023-04-03T07:47:16;10.93;;;4.27;;
8319;SDS011;4197;42.130;24.746;2023-04-03T07:49:44;9.80;;;4.00;;
8319;SDS011;4197;42.130;24.746;2023-04-03T07:52:13;8.50;;;4.13;;
8319;SDS011;4197;42.130;24.746;2023-04-03T07:54:44;10.67;;;4.57;;
8319;SDS011;4197;42.130;24.746;2023-04-03T07:57:12;6.97;;;3.67;;
8319;SDS011;4197;42.130;24.746;2023-04-03T07:59:41;6.67;;;3.77;;
8319;SDS011;4197;42.130;24.746;2023-04-03T08:02:11;8.90;;;4.07;;
8319;SDS011;4197;42.130;24.746;2023-04-03T08:04:40;9.75;;;4.13;;
8319;SDS011;4197;42.130;24.746;2023-04-03T08:07:09;5.57;;;4.00;;
8319;SDS011;4197;42.130;24.746;2023-04-03T08:09:37;5.95;;;3.65;;
8319;SDS011;4197;42.130;24.746;2023-04-03T08:12:06;5.13;;;3.03;;
8319;SDS011;4197;42.130;24.746;2023-04-03T08:14:37;5.60;;;3.37;;
8319;SDS011;4197;42.130;24.746;2023-04-03T08:17:06;9.45;;;4.05;;
8319;SDS011;4197;42.130;24.746;2023-04-03T08:19:39;7.50;;;4.67;;
8319;SDS011;4197;42.130;24.746;2023-04-03T08:22:08;14.60;;;5.03;;
8319;SDS011;4197;42.130;24.746;2023-04-03T08:24:37;5.55;;;3.97;;
8319;SDS011;4197;42.130;24.746;2023-04-03T08:27:17;23.92;;;6.15;;
8319;SDS011;4197;42.130;24.746;2023-04-03T08:29:46;9.85;;;4.43;;
8319;SDS011;4197;42.130;24.746;2023-04-03T08:32:14;14.20;;;5.13;;
8319;SDS011;4197;42.130;24.746;2023-04-03T08:34:44;9.85;;;4.90;;
8319;SDS011;4197;42.130;24.746;2023-04-03T08:37:13;15.53;;;6.67;;
8319;SDS011;4197;42.130;24.746;2023-04-03T08:39:43;14.90;;;6.87;;
8319;SDS011;4197;42.130;24.746;2023-04-03T08:42:14;18.40;;;7.23;;
8319;SDS011;4197;42.130;24.746;2023-04-03T08:44:47;17.07;;;7.90;;
8319;SDS011;4197;42.130;24.746;2023-04-03T08:47:24;10.40;;;5.57;;
8319;SDS011;4197;42.130;24.746;2023-04-03T08:49:59;11.80;;;5.80;;
8319;SDS011;4197;42.130;24.746;2023-04-03T08:52:32;18.73;;;6.40;;
8319;SDS011;4197;42.130;24.746;2023-04-03T08:55:05;9.00;;;5.63;;
8319;SDS011;4197;42.130;24.746;2023-04-03T08:57:41;11.53;;;5.97;;
8319;SDS011;4197;42.130;24.746;2023-04-03T09:00:16;15.17;;;5.60;;
8319;SDS011;4197;42.130;24.746;2023-04-03T09:02:47;16.70;;;5.47;;
8319;SDS011;4197;42.130;24.746;2023-04-03T09:05:20;22.10;;;6.37;;
8319;SDS011;4197;42.130;24.746;2023-04-03T09:07:57;15.23;;;5.60;;
8319;SDS011;4197;42.130;24.746;2023-04-03T09:10:33;11.93;;;5.57;;
8319;SDS011;4197;42.130;24.746;2023-04-03T09:13:05;10.45;;;4.57;;
8319;SDS011;4197;42.130;24.746;2023-04-03T09:15:39;11.07;;;5.22;;
8319;SDS011;4197;42.130;24.746;2023-04-03T09:18:11;15.90;;;5.30;;
8319;SDS011;4197;42.130;24.746;2023-04-03T09:20:45;18.63;;;5.17;;
8319;SDS011;4197;42.130;24.746;2023-04-03T09:23:22;17.07;;;5.30;;
8319;SDS011;4197;42.130;24.746;2023-04-03T09:25:58;15.25;;;5.47;;
8319;SDS011;4197;42.130;24.746;2023-04-03T09:28:32;15.40;;;5.10;;
8319;SDS011;4197;42.130;24.746;2023-04-03T09:31:20;9.70;;;4.22;;
8319;SDS011;4197;42.130;24.746;2023-04-03T09:33:50;20.30;;;5.10;;
8319;SDS011;4197;42.130;24.746;2023-04-03T09:36:41;9.07;;;4.00;;
8319;SDS011;4197;42.130;24.746;2023-04-03T09:39:12;7.57;;;3.67;;
8319;SDS011;4197;42.130;24.746;2023-04-03T09:41:43;6.18;;;3.25;;
8319;SDS011;4197;42.130;24.746;2023-04-03T09:44:25;8.33;;;3.63;;
8319;SDS011;4197;42.130;24.746;2023-04-03T09:46:56;14.97;;;3.80;;
8319;SDS011;4197;42.130;24.746;2023-04-03T09:49:25;3.97;;;2.90;;
8319;SDS011;4197;42.130;24.746;2023-04-03T09:51:54;11.53;;;3.80;;
8319;SDS011;4197;42.130;24.746;2023-04-03T09:54:36;10.97;;;4.93;;
8319;SDS011;4197;42.130;24.746;2023-04-03T09:57:08;10.17;;;5.43;;
8319;SDS011;4197;42.130;24.746;2023-04-03T09:59:42;6.63;;;3.83;;
8319;SDS011;4197;42.130;24.746;2023-04-03T10:05:02;8.60;;;4.33;;
8319;SDS011;4197;42.130;24.746;2023-04-03T10:07:37;5.50;;;3.73;;
8319;SDS011;4197;42.130;24.746;2023-04-03T10:10:18;10.33;;;3.73;;
8319;SDS011;4197;42.130;24.746;2023-04-03T10:13:00;8.50;;;3.50;;
8319;SDS011;4197;42.130;24.746;2023-04-03T10:15:33;6.80;;;3.50;;
8319;SDS011;4197;42.130;24.746;2023-04-03T10:18:13;6.43;;;3.80;;
8319;SDS011;4197;42.130;24.746;2023-04-03T10:20:55;5.73;;;3.60;;
8319;SDS011;4197;42.130;24.746;2023-04-03T10:23:36;6.83;;;4.03;;
8319;SDS011;4197;42.130;24.746;2023-04-03T10:26:12;5.27;;;3.87;;
8319;SDS011;4197;42.130;24.746;2023-04-03T10:28:53;7.97;;;3.80;;
8319;SDS011;4197;42.130;24.746;2023-04-03T10:31:32;8.90;;;4.70;;
8319;SDS011;4197;42.130;24.746;2023-04-03T10:34:05;6.53;;;4.70;;
8319;SDS011;4197;42.130;24.746;2023-04-03T10:36:43;18.00;;;4.87;;
8319;SDS011;4197;42.130;24.746;2023-04-03T10:39:22;10.87;;;4.30;;
8319;SDS011;4197;42.130;24.746;2023-04-03T10:41:59;6.40;;;4.33;;
8319;SDS011;4197;42.130;24.746;2023-04-03T10:44:48;9.77;;;4.53;;
8319;SDS011;4197;42.130;24.746;2023-04-03T10:47:30;8.03;;;4.60;;
8319;SDS011;4197;42.130;24.746;2023-04-03T10:50:11;8.70;;;4.60;;
8319;SDS011;4197;42.130;24.746;2023-04-03T10:52:54;14.47;;;5.60;;
8319;SDS011;4197;42.130;24.746;2023-04-03T10:55:33;8.40;;;5.43;;
8319;SDS011;4197;42.130;24.746;2023-04-03T10:58:06;8.17;;;4.10;;
8319;SDS011;4197;42.130;24.746;2023-04-03T11:00:43;6.13;;;4.33;;
8319;SDS011;4197;42.130;24.746;2023-04-03T11:03:16;6.60;;;4.27;;
8319;SDS011;4197;42.130;24.746;2023-04-03T11:05:53;6.47;;;3.53;;
8319;SDS011;4197;42.130;24.746;2023-04-03T11:08:25;6.07;;;4.27;;
8319;SDS011;4197;42.130;24.746;2023-04-03T11:10:59;6.07;;;3.73;;
8319;SDS011;4197;42.130;24.746;2023-04-03T11:13:32;5.83;;;4.97;;
8319;SDS011;4197;42.130;24.746;2023-04-03T11:16:03;7.20;;;4.03;;
8319;SDS011;4197;42.130;24.746;2023-04-03T11:18:34;5.50;;;5.00;;
8319;SDS011;4197;42.130;24.746;2023-04-03T11:21:09;5.33;;;4.40;;
8319;SDS011;4197;42.130;24.746;2023-04-03T11:23:43;6.73;;;6.00;;
8319;SDS011;4197;42.130;24.746;2023-04-03T11:26:17;7.43;;;4.70;;
8319;SDS011;4197;42.130;24.746;2023-04-03T11:28:52;4.90;;;4.10;;
8319;SDS011;4197;42.130;24.746;2023-04-03T11:31:26;4.40;;;3.90;;
8319;SDS011;4197;42.130;24.746;2023-04-03T11:34:08;6.27;;;4.20;;
8319;SDS011;4197;42.130;24.746;2023-04-03T11:36:48;5.60;;;4.93;;
8319;SDS011;4197;42.130;24.746;2023-04-03T11:39:22;4.90;;;3.67;;
8319;SDS011;4197;42.130;24.746;2023-04-03T11:41:55;5.73;;;3.90;;
8319;SDS011;4197;42.130;24.746;2023-04-03T11:44:41;5.47;;;3.67;;
8319;SDS011;4197;42.130;24.746;2023-04-03T11:47:11;5.57;;;4.17;;
8319;SDS011;4197;42.130;24.746;2023-04-03T11:50:01;8.57;;;4.07;;
8319;SDS011;4197;42.130;24.746;2023-04-03T11:58:15;12.67;;;5.80;;
8319;SDS011;4197;42.130;24.746;2023-04-03T12:01:01;15.70;;;6.70;;
8319;SDS011;4197;42.130;24.746;2023-04-03T12:03:34;7.70;;;4.80;;
8319;SDS011;4197;42.130;24.746;2023-04-03T12:09:29;6.50;;;4.80;;
8319;SDS011;4197;42.130;24.746;2023-04-03T12:12:01;6.30;;;5.50;;
8319;SDS011;4197;42.130;24.746;2023-04-03T12:14:55;9.00;;;5.63;;
8319;SDS011;4197;42.130;24.746;2023-04-03T12:17:40;6.33;;;5.07;;
8319;SDS011;4197;42.130;24.746;2023-04-03T12:23:23;9.67;;;5.90;;
8319;SDS011;4197;42.130;24.746;2023-04-03T12:25:53;10.37;;;5.77;;
8319;SDS011;4197;42.130;24.746;2023-04-03T12:28:31;10.07;;;6.57;;
8319;SDS011;4197;42.130;24.746;2023-04-03T12:31:07;8.23;;;6.83;;
8319;SDS011;4197;42.130;24.746;2023-04-03T12:33:40;17.70;;;12.10;;
8319;SDS011;4197;42.130;24.746;2023-04-03T12:36:28;8.23;;;6.03;;
8319;SDS011;4197;42.130;24.746;2023-04-03T12:39:17;12.87;;;7.50;;
8319;SDS011;4197;42.130;24.746;2023-04-03T12:42:03;12.60;;;10.03;;
8319;SDS011;4197;42.130;24.746;2023-04-03T12:44:47;12.27;;;9.30;;
8319;SDS011;4197;42.130;24.746;2023-04-03T12:47:25;18.07;;;10.63;;
8319;SDS011;4197;42.130;24.746;2023-04-03T12:49:59;13.63;;;8.40;;
8319;SDS011;4197;42.130;24.746;2023-04-03T12:52:32;15.67;;;10.17;;
8319;SDS011;4197;42.130;24.746;2023-04-03T12:55:07;17.10;;;9.67;;
8319;SDS011;4197;42.130;24.746;2023-04-03T12:57:43;11.67;;;7.77;;
8319;SDS011;4197;42.130;24.746;2023-04-03T13:00:25;12.53;;;8.50;;
8319;SDS011;4197;42.130;24.746;2023-04-03T13:02:58;14.60;;;11.77;;
8319;SDS011;4197;42.130;24.746;2023-04-03T13:05:28;14.53;;;10.50;;
8319;SDS011;4197;42.130;24.746;2023-04-03T13:08:00;12.67;;;8.70;;
8319;SDS011;4197;42.130;24.746;2023-04-03T13:10:31;14.10;;;9.23;;
8319;SDS011;4197;42.130;24.746;2023-04-03T13:13:13;15.80;;;9.90;;
8319;SDS011;4197;42.130;24.746;2023-04-03T13:15:45;16.87;;;10.83;;
8319;SDS011;4197;42.130;24.746;2023-04-03T13:18:24;16.37;;;12.67;;
8319;SDS011;4197;42.130;24.746;2023-04-03T13:20:57;19.63;;;13.43;;
8319;SDS011;4197;42.130;24.746;2023-04-03T13:23:29;17.30;;;13.93;;
8319;SDS011;4197;42.130;24.746;2023-04-03T13:25:59;20.17;;;14.83;;
8319;SDS011;4197;42.130;24.746;2023-04-03T13:28:30;18.03;;;14.57;;
8319;SDS011;4197;42.130;24.746;2023-04-03T13:31:05;16.13;;;11.17;;
8319;SDS011;4197;42.130;24.746;2023-04-03T13:33:38;12.40;;;9.97;;
8319;SDS011;4197;42.130;24.746;2023-04-03T13:36:15;13.77;;;10.10;;
8319;SDS011;4197;42.130;24.746;2023-04-03T13:38:46;14.30;;;9.80;;
8319;SDS011;4197;42.130;24.746;2023-04-03T13:41:26;11.77;;;9.87;;
8319;SDS011;4197;42.130;24.746;2023-04-03T13:46:54;15.17;;;10.43;;
8319;SDS011;4197;42.130;24.746;2023-04-03T13:49:29;18.57;;;12.27;;
8319;SDS011;4197;42.130;24.746;2023-04-03T13:52:01;18.37;;;11.87;;
8319;SDS011;4197;42.130;24.746;2023-04-03T13:54:35;17.10;;;11.20;;
8319;SDS011;4197;42.130;24.746;2023-04-03T13:57:10;15.97;;;11.80;;
8319;SDS011;4197;42.130;24.746;2023-04-03T13:59:43;17.53;;;12.33;;
8319;SDS011;4197;42.130;24.746;2023-04-03T14:02:16;16.40;;;13.27;;
8319;SDS011;4197;42.130;24.746;2023-04-03T14:04:50;15.13;;;12.37;;
8319;SDS011;4197;42.130;24.746;2023-04-03T14:07:23;17.03;;;13.13;;
8319;SDS011;4197;42.130;24.746;2023-04-03T14:09:53;17.63;;;13.60;;
8319;SDS011;4197;42.130;24.746;2023-04-03T14:12:24;18.17;;;13.93;;
8319;SDS011;4197;42.130;24.746;2023-04-03T14:14:58;19.37;;;15.63;;
8319;SDS011;4197;42.130;24.746;2023-04-03T14:17:28;19.93;;;15.33;;
8319;SDS011;4197;42.130;24.746;2023-04-03T14:19:58;15.93;;;14.23;;
8319;SDS011;4197;42.130;24.746;2023-04-03T14:22:35;17.70;;;14.00;;
8319;SDS011;4197;42.130;24.746;2023-04-03T14:25:04;16.50;;;12.50;;
8319;SDS011;4197;42.130;24.746;2023-04-03T14:27:34;15.50;;;11.67;;
8319;SDS011;4197;42.130;24.746;2023-04-03T14:30:07;13.40;;;11.97;;
8319;SDS011;4197;42.130;24.746;2023-04-03T14:32:40;17.30;;;13.60;;
8319;SDS011;4197;42.130;24.746;2023-04-03T14:35:10;16.67;;;12.13;;
8319;SDS011;4197;42.130;24.746;2023-04-03T14:37:40;15.07;;;13.47;;
8319;SDS011;4197;42.130;24.746;2023-04-03T14:40:11;17.40;;;13.37;;
8319;SDS011;4197;42.130;24.746;2023-04-03T14:42:42;17.00;;;13.13;;
8319;SDS011;4197;42.130;24.746;2023-04-03T14:45:11;18.10;;;15.40;;
8319;SDS011;4197;42.130;24.746;2023-04-03T14:47:44;20.37;;;16.90;;
8319;SDS011;4197;42.130;24.746;2023-04-03T14:50:17;20.30;;;16.57;;
8319;SDS011;4197;42.130;24.746;2023-04-03T14:52:49;20.77;;;16.73;;
8319;SDS011;4197;42.130;24.746;2023-04-03T14:55:24;22.27;;;16.17;;
8319;SDS011;4197;42.130;24.746;2023-04-03T14:57:53;21.50;;;17.77;;
8319;SDS011;4197;42.130;24.746;2023-04-03T15:00:23;25.13;;;17.60;;
8319;SDS011;4197;42.130;24.746;2023-04-03T15:02:52;18.83;;;16.03;;
8319;SDS011;4197;42.130;24.746;2023-04-03T15:05:25;24.50;;;17.43;;
8319;SDS011;4197;42.130;24.746;2023-04-03T15:07:54;22.80;;;18.93;;
8319;SDS011;4197;42.130;24.746;2023-04-03T15:10:24;23.07;;;20.20;;
8319;SDS011;4197;42.130;24.746;2023-04-03T15:12:54;27.77;;;21.53;;
8319;SDS011;4197;42.130;24.746;2023-04-03T15:15:24;29.27;;;21.07;;
8319;SDS011;4197;42.130;24.746;2023-04-03T15:17:56;27.93;;;21.03;;
8319;SDS011;4197;42.130;24.746;2023-04-03T15:20:27;28.93;;;22.10;;
8319;SDS011;4197;42.130;24.746;2023-04-03T15:22:57;27.20;;;21.07;;
8319;SDS011;4197;42.130;24.746;2023-04-03T15:25:27;26.03;;;18.47;;
8319;SDS011;4197;42.130;24.746;2023-04-03T15:27:57;29.90;;;19.83;;
8319;SDS011;4197;42.130;24.746;2023-04-03T15:30:26;37.67;;;28.00;;
8319;SDS011;4197;42.130;24.746;2023-04-03T15:32:54;30.93;;;20.63;;
8319;SDS011;4197;42.130;24.746;2023-04-03T15:35:23;45.83;;;34.77;;
8319;SDS011;4197;42.130;24.746;2023-04-03T15:37:53;142.07;;;91.90;;